首页
METAR-TAF:

METAR-TAF

机场 :

東密德蘭機場

東米德蘭, 英格兰

纬度: 52-50N, 经度: 001-20W, 海拔: 94米

当前天气观测

该预报发布于20分钟前的05:20 UTC
风速1节,风向多变
温度 0°C
湿度 100%
气压 1015 hPa
能見度: 5000
散云层高于2700英尺
轻雾

METAR: EGNX 190520Z VRB01KT 5000 BR SCT027 M00/M00 Q1015

时间: 05:40 (05:40 UTC)

预报

该预报发布于43分钟前的04:57 UTC
预报有效从19日的 06点(UTC)到 20日的 06点(UTC)
风速4节,风向多变
能見度: 3000
少量云层高于3000英尺
轻雾
几率 30% :
短暂存在
从 19日的 06点(UTC)到 19日的 11点(UTC)
能見度: 0200
冻雾
几率 30% :
短暂存在
从 19日的 11点(UTC)到 19日的 13点(UTC)
能見度: 5000
少量云层高于200英尺
成为
从 19日的 13点(UTC)到 19日的 16点(UTC)
能见度10公里或以上
短暂存在
从 19日的 18点(UTC)到 20日的 06点(UTC)
能見度: 8000

TAF: EGNX 190457Z 1906/2006 VRB04KT 3000 BR FEW030 PROB30 TEMPO 1906/1911 0200 FZFG VV/// PROB30 TEMPO 1911/1913 5000 HZ FEW002 BECMG 1913/1916 9999 NSW TEMPO 1918/2006 8000

超过4000个机场的气象观测和天气预报(METAR&TAF报告)。

可查询的气象台以黄色和红色小点在地图上表示。

将鼠标移到小点上方,可查看气象台名称。

然后点击查看天气观测和预报。

如需切换地图:点击带黑十字的绿色按钮放大地图;点击带横线的绿色按钮缩小地图;或者点击绿色箭头查看邻近地区的地图。


METAR-TAF: